Time;durP1;ratioP1;P1;durP2;ratioP2;P2;SDS_P1;SDS_P2;PMS_P1;PMS_P2;Temp;Humidity;BMP_temperature;BMP_pressure;BME280_temperature;BME280_humidity;BME280_pressure;Samples;Min_cycle;Max_cycle;Signal;HPM_P1;HPM_P2
2022/05/31 00:02:24;;;;;;;;;;;22.20;31.60;;;;;;5120282;28;19927;-50
2022/05/31 00:04:49;;;;;;;;;;;22.00;31.90;;;;;;5124251;28;19944;-54
2022/05/31 00:07:15;;;;;;;;;;;22.10;31.80;;;;;;5126090;28;19934;-46
2022/05/31 00:09:41;;;;;;;;;;;22.10;31.90;;;;;;5122675;28;20370;-48
2022/05/31 00:12:07;;;;;;;;;;;22.00;32.00;;;;;;5128064;28;19923;-48
2022/05/31 00:14:33;;;;;;;;;;;22.00;32.00;;;;;;5122993;28;19995;-46
2022/05/31 00:17:00;;;;;;;;;;;22.10;31.90;;;;;;5122214;27;19924;-45
2022/05/31 00:19:25;;;;;;;;;;;22.20;31.80;;;;;;5126431;28;19923;-46
2022/05/31 00:22:06;;;;;;;;;;;22.20;31.80;;;;;;5120584;28;20356;-47
2022/05/31 00:24:32;;;;;;;;;;;22.20;31.90;;;;;;5121929;28;20102;-46
2022/05/31 00:26:58;;;;;;;;;;;22.20;31.90;;;;;;5127740;28;19931;-46
2022/05/31 00:29:24;;;;;;;;;;;22.10;32.00;;;;;;5122022;28;19970;-46
2022/05/31 00:31:50;;;;;;;;;;;22.10;31.90;;;;;;5126781;28;20377;-54
2022/05/31 00:34:15;;;;;;;;;;;22.00;32.20;;;;;;5105070;28;19927;-46
2022/05/31 00:36:42;;;;;;;;;;;22.10;32.00;;;;;;5102170;28;19963;-46
2022/05/31 00:39:08;;;;;;;;;;;22.20;31.90;;;;;;5125260;28;19927;-46
2022/05/31 00:41:34;;;;;;;;;;;22.20;31.90;;;;;;5121237;28;19975;-46
2022/05/31 00:44:02;;;;;;;;;;;21.80;32.60;;;;;;5121743;28;20287;-46
2022/05/31 00:46:42;;;;;;;;;;;21.20;33.20;;;;;;5127559;28;19939;-46
2022/05/31 00:49:08;;;;;;;;;;;21.30;33.10;;;;;;5122080;28;19975;-45
2022/05/31 00:51:38;;;;;;;;;;;21.60;32.90;;;;;;5103896;28;19937;-45
2022/05/31 00:54:04;;;;;;;;;;;21.80;32.50;;;;;;5127221;28;20022;-46
2022/05/31 00:56:30;;;;;;;;;;;21.80;32.50;;;;;;5120123;28;20491;-46
2022/05/31 00:59:32;;;;;;;;;;;21.80;32.50;;;;;;5106378;28;19923;-53
2022/05/31 01:01:58;;;;;;;;;;;21.80;32.50;;;;;;5023242;28;20381;-45
2022/05/31 01:04:31;;;;;;;;;;;21.90;32.40;;;;;;5100342;28;19934;-46
2022/05/31 01:06:56;;;;;;;;;;;21.90;32.50;;;;;;5121556;28;20606;-46
2022/05/31 01:09:22;;;;;;;;;;;22.00;32.40;;;;;;5123217;28;20006;-46
2022/05/31 01:11:48;;;;;;;;;;;22.00;32.20;;;;;;5121543;28;19938;-44
2022/05/31 01:14:14;;;;;;;;;;;22.10;32.20;;;;;;5125723;28;19956;-44
2022/05/31 01:16:51;;;;;;;;;;;22.10;32.10;;;;;;5120032;28;20150;-45
2022/05/31 01:19:55;;;;;;;;;;;22.20;32.10;;;;;;5121016;28;19972;-45
2022/05/31 01:22:02;;;;;;;;;;;22.10;32.10;;;;;;5126574;28;20272;-44
2022/05/31 01:24:28;;;;;;;;;;;22.00;32.20;;;;;;5121482;28;19972;-45
2022/05/31 01:27:14;;;;;;;;;;;22.00;32.40;;;;;;5121457;28;19966;-45
2022/05/31 01:29:40;;;;;;;;;;;22.00;32.30;;;;;;5125312;27;20393;-48
2022/05/31 01:32:07;;;;;;;;;;;22.00;32.40;;;;;;5102492;28;19962;-44
2022/05/31 01:34:45;;;;;;;;;;;22.00;32.30;;;;;;5119848;28;19924;-44
2022/05/31 01:37:11;;;;;;;;;;;22.00;32.40;;;;;;5126235;28;19962;-44
2022/05/31 01:39:53;;;;;;;;;;;22.10;32.20;;;;;;5121393;28;19988;-46
2022/05/31 01:42:23;;;;;;;;;;;22.20;32.10;;;;;;5101778;28;19930;-44
2022/05/31 01:44:51;;;;;;;;;;;22.20;32.10;;;;;;5107495;28;19927;-45
2022/05/31 01:47:17;;;;;;;;;;;22.20;32.10;;;;;;5120847;28;19971;-45
2022/05/31 01:49:44;;;;;;;;;;;22.20;32.10;;;;;;5120787;28;20444;-45
2022/05/31 01:52:10;;;;;;;;;;;22.20;32.20;;;;;;5124201;28;19927;-44
2022/05/31 01:54:36;;;;;;;;;;;22.00;32.40;;;;;;5120326;28;19930;-49
2022/05/31 01:57:02;;;;;;;;;;;22.00;32.50;;;;;;5123950;28;20309;-53
2022/05/31 01:59:29;;;;;;;;;;;22.00;32.50;;;;;;5123960;28;19933;-45
2022/05/31 02:01:56;;;;;;;;;;;22.00;32.50;;;;;;5121363;28;19923;-44
2022/05/31 02:04:21;;;;;;;;;;;22.00;32.40;;;;;;5126687;28;20022;-45
2022/05/31 02:07:10;;;;;;;;;;;22.10;32.30;;;;;;5103070;28;19935;-45
2022/05/31 02:09:33;;;;;;;;;;;22.20;32.10;;;;;;5119158;28;19945;-49
2022/05/31 02:11:59;;;;;;;;;;;22.30;32.10;;;;;;5106405;28;19924;-47
2022/05/31 02:14:25;;;;;;;;;;;22.20;32.30;;;;;;5120225;28;20385;-45
2022/05/31 02:16:50;;;;;;;;;;;22.20;32.30;;;;;;5120447;28;20132;-46
2022/05/31 02:19:23;;;;;;;;;;;22.10;32.40;;;;;;5126238;28;19927;-45
2022/05/31 02:21:49;;;;;;;;;;;22.00;32.60;;;;;;5120601;28;19928;-47
2022/05/31 02:24:15;;;;;;;;;;;22.00;32.60;;;;;;5102387;28;19943;-52
2022/05/31 02:26:41;;;;;;;;;;;22.00;32.60;;;;;;5125632;28;19923;-48
2022/05/31 02:29:08;;;;;;;;;;;22.00;32.60;;;;;;5118293;28;20026;-46
2022/05/31 02:31:34;;;;;;;;;;;22.10;32.50;;;;;;5125345;28;19946;-46
2022/05/31 02:34:00;;;;;;;;;;;22.20;32.40;;;;;;5120326;28;19923;-46
2022/05/31 02:36:26;;;;;;;;;;;22.20;32.40;;;;;;5102444;28;19932;-44
2022/05/31 02:38:52;;;;;;;;;;;22.20;32.40;;;;;;5125687;28;19946;-46
2022/05/31 02:41:18;;;;;;;;;;;22.30;32.30;;;;;;5121183;27;19927;-46
2022/05/31 02:43:44;;;;;;;;;;;22.20;32.40;;;;;;5123601;28;20073;-46
2022/05/31 02:46:10;;;;;;;;;;;22.20;32.40;;;;;;5127879;28;20421;-49
2022/05/31 02:48:35;;;;;;;;;;;22.00;32.70;;;;;;5122344;28;19924;-46
2022/05/31 02:51:02;;;;;;;;;;;21.40;33.60;;;;;;5128835;28;19923;-46
2022/05/31 02:53:29;;;;;;;;;;;21.10;33.90;;;;;;5123673;28;20386;-47
2022/05/31 02:55:55;;;;;;;;;;;20.90;34.20;;;;;;5123822;28;20459;-47
2022/05/31 02:58:21;;;;;;;;;;;21.40;33.80;;;;;;5129237;28;19962;-46
2022/05/31 03:00:47;;;;;;;;;;;21.70;33.30;;;;;;5123646;28;19930;-46
2022/05/31 03:03:13;;;;;;;;;;;21.70;33.30;;;;;;5123442;28;19932;-46
2022/05/31 03:05:39;;;;;;;;;;;21.80;33.10;;;;;;5126604;28;19930;-46
2022/05/31 03:08:05;;;;;;;;;;;21.80;33.10;;;;;;5122583;28;20025;-47
2022/05/31 03:10:36;;;;;;;;;;;21.90;32.90;;;;;;5127912;28;19976;-54
2022/05/31 03:13:02;;;;;;;;;;;22.00;32.80;;;;;;5108364;28;20295;-46
2022/05/31 03:15:29;;;;;;;;;;;22.10;32.60;;;;;;5123424;28;19969;-45
2022/05/31 03:17:56;;;;;;;;;;;22.10;32.60;;;;;;5129081;28;20313;-47
2022/05/31 03:20:23;;;;;;;;;;;22.10;32.50;;;;;;5123246;28;19933;-45
2022/05/31 03:22:51;;;;;;;;;;;22.00;32.70;;;;;;5121908;28;19924;-46
2022/05/31 03:25:21;;;;;;;;;;;22.00;32.70;;;;;;5127306;28;20569;-47
2022/05/31 03:27:47;;;;;;;;;;;21.90;32.90;;;;;;5122606;28;19927;-44
2022/05/31 03:30:12;;;;;;;;;;;21.90;32.80;;;;;;5104588;28;20652;-45
2022/05/31 03:32:38;;;;;;;;;;;21.90;32.80;;;;;;5110450;28;19974;-44
2022/05/31 03:35:04;;;;;;;;;;;22.00;32.80;;;;;;5123468;28;19964;-44
2022/05/31 03:37:30;;;;;;;;;;;22.00;32.70;;;;;;5093379;28;19928;-44
2022/05/31 03:39:56;;;;;;;;;;;22.20;32.50;;;;;;5123239;28;19947;-47
2022/05/31 03:42:22;;;;;;;;;;;22.10;32.50;;;;;;5102499;28;19930;-49
2022/05/31 03:44:47;;;;;;;;;;;22.20;32.40;;;;;;5127747;28;19931;-46
2022/05/31 03:47:13;;;;;;;;;;;22.10;32.50;;;;;;5122615;28;19983;-44
2022/05/31 03:49:39;;;;;;;;;;;22.10;32.50;;;;;;5102706;28;19928;-45
2022/05/31 03:52:05;;;;;;;;;;;22.10;32.50;;;;;;5127970;27;19973;-45
2022/05/31 03:54:33;;;;;;;;;;;22.00;32.70;;;;;;5123306;28;20938;-44
2022/05/31 03:56:59;;;;;;;;;;;21.90;32.70;;;;;;5109047;28;20290;-53
2022/05/31 03:59:24;;;;;;;;;;;22.00;32.60;;;;;;5123248;28;19927;-47
2022/05/31 04:01:50;;;;;;;;;;;22.10;32.50;;;;;;5121615;28;20362;-45
2022/05/31 04:04:16;;;;;;;;;;;22.10;32.50;;;;;;5127598;28;19965;-48
2022/05/31 04:06:42;;;;;;;;;;;22.10;32.40;;;;;;5122661;28;19935;-46
2022/05/31 04:09:07;;;;;;;;;;;22.20;32.30;;;;;;5122847;28;19923;-45
2022/05/31 04:11:33;;;;;;;;;;;22.20;32.40;;;;;;5128206;28;19931;-45
2022/05/31 04:13:59;;;;;;;;;;;22.20;32.40;;;;;;5122799;28;20026;-45
2022/05/31 04:16:26;;;;;;;;;;;22.20;32.40;;;;;;5124700;28;19976;-52
2022/05/31 04:18:52;;;;;;;;;;;22.10;32.40;;;;;;5124142;28;19927;-52
2022/05/31 04:21:18;;;;;;;;;;;22.00;32.50;;;;;;5121346;28;19948;-46
2022/05/31 04:24:01;;;;;;;;;;;22.00;32.60;;;;;;5127230;28;19923;-47
2022/05/31 04:26:28;;;;;;;;;;;22.00;32.50;;;;;;5122264;28;19923;-45
2022/05/31 04:28:54;;;;;;;;;;;22.00;32.50;;;;;;5122058;28;19934;-46
2022/05/31 04:31:19;;;;;;;;;;;22.10;32.30;;;;;;5127734;28;19923;-45
2022/05/31 04:33:45;;;;;;;;;;;22.20;32.20;;;;;;5121978;28;19936;-48
2022/05/31 04:36:12;;;;;;;;;;;22.10;32.30;;;;;;5121163;28;19927;-48
2022/05/31 04:38:38;;;;;;;;;;;22.10;32.20;;;;;;5125988;28;20025;-48
2022/05/31 04:41:03;;;;;;;;;;;22.20;32.10;;;;;;5121369;28;19927;-46
2022/05/31 04:43:29;;;;;;;;;;;22.20;32.20;;;;;;5125030;28;20439;-52
2022/05/31 04:45:55;;;;;;;;;;;22.20;32.20;;;;;;5124808;28;20041;-45
2022/05/31 04:48:21;;;;;;;;;;;22.10;32.40;;;;;;5103610;28;19923;-46
2022/05/31 04:50:47;;;;;;;;;;;22.00;32.60;;;;;;5127629;28;19923;-48
2022/05/31 04:53:13;;;;;;;;;;;22.00;32.70;;;;;;5121854;28;19927;-45
2022/05/31 04:55:38;;;;;;;;;;;21.80;32.90;;;;;;5120103;28;19984;-47
2022/05/31 04:58:04;;;;;;;;;;;21.40;33.50;;;;;;5126599;28;20345;-45
2022/05/31 05:00:30;;;;;;;;;;;21.30;33.30;;;;;;5121431;28;19923;-45
2022/05/31 05:02:56;;;;;;;;;;;21.30;33.70;;;;;;5122869;28;19924;-53
2022/05/31 05:05:22;;;;;;;;;;;21.80;33.30;;;;;;5125805;27;19923;-44
2022/05/31 05:07:48;;;;;;;;;;;21.80;33.30;;;;;;5122350;28;19931;-44
2022/05/31 05:10:13;;;;;;;;;;;21.80;33.20;;;;;;5127354;28;20555;-47
2022/05/31 05:12:39;;;;;;;;;;;21.90;33.20;;;;;;5121582;28;20419;-49
2022/05/31 05:15:05;;;;;;;;;;;22.00;33.00;;;;;;5120676;28;19923;-44
2022/05/31 05:17:31;;;;;;;;;;;22.00;32.90;;;;;;5108219;28;19963;-45
2022/05/31 05:19:57;;;;;;;;;;;22.00;32.90;;;;;;5122392;28;19967;-44
2022/05/31 05:22:23;;;;;;;;;;;22.10;32.80;;;;;;5104058;28;19923;-44
2022/05/31 05:24:49;;;;;;;;;;;22.20;32.70;;;;;;5127174;28;19923;-44
2022/05/31 05:27:14;;;;;;;;;;;22.20;32.80;;;;;;5122696;28;19930;-44
2022/05/31 05:32:25;;;;;;;;;;;22.10;32.90;;;;;;5123671;28;19923;-44
2022/05/31 05:34:54;;;;;;;;;;;22.00;33.10;;;;;;5121473;28;20014;-46
2022/05/31 05:37:20;;;;;;;;;;;22.00;33.00;;;;;;5126802;28;19929;-44
2022/05/31 05:39:46;;;;;;;;;;;22.00;33.00;;;;;;5103627;28;19927;-46
2022/05/31 05:42:12;;;;;;;;;;;22.10;32.90;;;;;;5122194;28;20394;-44
2022/05/31 05:44:38;;;;;;;;;;;22.10;32.90;;;;;;5127139;28;19930;-44
2022/05/31 05:47:04;;;;;;;;;;;22.20;32.80;;;;;;5117828;28;20013;-44
2022/05/31 05:49:30;;;;;;;;;;;22.10;32.80;;;;;;5120604;28;19928;-49
2022/05/31 05:51:57;;;;;;;;;;;22.20;32.80;;;;;;5125063;28;20494;-45
2022/05/31 05:54:23;;;;;;;;;;;22.20;32.80;;;;;;5121441;28;19973;-45
2022/05/31 05:56:51;;;;;;;;;;;22.20;32.80;;;;;;5126595;28;19930;-45
2022/05/31 05:59:20;;;;;;;;;;;22.00;32.90;;;;;;5121674;28;19923;-44
2022/05/31 06:01:47;;;;;;;;;;;22.00;33.00;;;;;;5121724;28;20390;-44
2022/05/31 06:04:21;;;;;;;;;;;22.10;32.90;;;;;;5108475;28;19928;-44
2022/05/31 06:06:46;;;;;;;;;;;22.20;32.80;;;;;;5121921;28;19943;-44
2022/05/31 06:09:14;;;;;;;;;;;22.20;32.80;;;;;;5119522;28;19931;-44
2022/05/31 06:11:41;;;;;;;;;;;22.20;32.70;;;;;;5125492;28;19930;-43
2022/05/31 06:14:33;;;;;;;;;;;22.20;32.80;;;;;;5121321;28;20290;-46
2022/05/31 06:17:00;;;;;;;;;;;22.20;32.70;;;;;;5081815;28;19968;-43
2022/05/31 06:19:33;;;;;;;;;;;22.10;32.80;;;;;;5107964;28;19972;-44
2022/05/31 06:21:59;;;;;;;;;;;22.00;33.00;;;;;;5086000;28;19924;-44
2022/05/31 06:24:27;;;;;;;;;;;22.10;32.90;;;;;;5121403;28;20255;-43
2022/05/31 06:26:52;;;;;;;;;;;22.20;32.70;;;;;;5124520;28;19923;-45
2022/05/31 06:29:18;;;;;;;;;;;22.20;32.60;;;;;;5118851;28;20302;-46
2022/05/31 06:31:44;;;;;;;;;;;22.20;32.70;;;;;;5125415;28;19931;-48
2022/05/31 06:34:10;;;;;;;;;;;22.20;32.80;;;;;;5120190;28;20446;-47
2022/05/31 06:36:36;;;;;;;;;;;22.20;32.70;;;;;;5120459;28;20346;-45
2022/05/31 06:39:01;;;;;;;;;;;22.30;32.70;;;;;;5125956;28;19930;-46
2022/05/31 06:41:27;;;;;;;;;;;22.20;32.80;;;;;;5120068;28;19927;-46
2022/05/31 06:43:53;;;;;;;;;;;22.10;33.00;;;;;;5101737;28;19951;-45
2022/05/31 06:46:19;;;;;;;;;;;22.00;33.20;;;;;;5123198;28;20568;-46
2022/05/31 06:48:45;;;;;;;;;;;22.10;33.10;;;;;;5119330;28;20026;-46
2022/05/31 06:51:12;;;;;;;;;;;22.10;33.00;;;;;;5123923;28;20437;-55
2022/05/31 06:58:50;;;;;;;;;;;22.20;33.10;;;;;;5125889;28;20370;-49
2022/05/31 07:01:16;;;;;;;;;;;22.20;33.10;;;;;;5119603;28;19930;-46
2022/05/31 07:03:42;;;;;;;;;;;21.40;34.40;;;;;;5118152;28;20335;-47
2022/05/31 07:06:08;;;;;;;;;;;21.30;34.70;;;;;;5124067;28;19928;-48
2022/05/31 07:08:35;;;;;;;;;;;21.30;34.80;;;;;;5119069;28;20314;-47
2022/05/31 07:11:01;;;;;;;;;;;21.60;34.20;;;;;;5119797;28;19931;-47
2022/05/31 07:13:28;;;;;;;;;;;21.80;34.00;;;;;;5125339;28;19958;-46
2022/05/31 07:15:53;;;;;;;;;;;21.80;33.90;;;;;;5119690;28;20022;-48
2022/05/31 07:18:19;;;;;;;;;;;21.90;33.90;;;;;;5123312;28;19928;-55
2022/05/31 07:20:45;;;;;;;;;;;21.90;33.80;;;;;;5121934;28;19924;-46
2022/05/31 07:23:11;;;;;;;;;;;22.00;33.80;;;;;;5099110;28;19970;-47
2022/05/31 07:25:37;;;;;;;;;;;22.10;33.70;;;;;;5124425;28;19923;-47
2022/05/31 07:28:03;;;;;;;;;;;22.10;33.60;;;;;;5121253;27;19934;-45
2022/05/31 07:30:28;;;;;;;;;;;22.20;33.70;;;;;;5123499;28;19923;-48
2022/05/31 07:32:54;;;;;;;;;;;22.20;33.70;;;;;;5128385;28;19931;-47
2022/05/31 07:35:20;;;;;;;;;;;22.00;34.30;;;;;;5103774;28;19931;-47
2022/05/31 07:37:46;;;;;;;;;;;22.00;34.20;;;;;;5124075;28;19977;-54
2022/05/31 07:40:11;;;;;;;;;;;22.10;34.20;;;;;;5125973;28;19923;-45
2022/05/31 07:42:37;;;;;;;;;;;22.20;34.10;;;;;;5122321;28;19969;-45
2022/05/31 07:45:03;;;;;;;;;;;22.20;34.20;;;;;;5128462;28;19980;-48
2022/05/31 07:47:29;;;;;;;;;;;22.10;34.60;;;;;;5123989;28;20291;-46
2022/05/31 07:49:56;;;;;;;;;;;22.10;34.80;;;;;;5123566;28;19924;-50
2022/05/31 07:52:22;;;;;;;;;;;22.00;35.00;;;;;;5109200;28;20060;-49
2022/05/31 07:54:47;;;;;;;;;;;21.90;35.30;;;;;;5123058;28;19924;-49
2022/05/31 07:59:58;;;;;;;;;;;22.10;35.20;;;;;;5125973;28;19923;-47
2022/05/31 08:02:23;;;;;;;;;;;22.00;35.40;;;;;;5103562;28;19923;-45
2022/05/31 08:04:49;;;;;;;;;;;22.00;35.40;;;;;;5124220;28;19927;-53
2022/05/31 08:07:15;;;;;;;;;;;22.10;35.40;;;;;;5125359;27;19934;-46
2022/05/31 08:09:41;;;;;;;;;;;22.10;35.30;;;;;;5122298;28;20001;-48
2022/05/31 08:12:10;;;;;;;;;;;22.10;35.20;;;;;;5128211;28;19979;-46
2022/05/31 08:14:36;;;;;;;;;;;22.20;35.00;;;;;;5103806;28;19928;-46
2022/05/31 08:17:03;;;;;;;;;;;22.10;35.00;;;;;;5102513;28;19930;-48
2022/05/31 08:19:29;;;;;;;;;;;22.10;35.10;;;;;;5126336;28;20107;-45
2022/05/31 08:21:56;;;;;;;;;;;22.20;34.90;;;;;;5121818;28;19929;-46
2022/05/31 08:24:22;;;;;;;;;;;22.20;34.90;;;;;;5122334;28;20207;-46
2022/05/31 08:26:48;;;;;;;;;;;22.20;34.90;;;;;;5109547;28;19979;-47
2022/05/31 08:29:14;;;;;;;;;;;22.20;35.00;;;;;;5122432;28;19942;-46
2022/05/31 08:31:40;;;;;;;;;;;22.20;34.90;;;;;;5127689;28;19979;-47
2022/05/31 08:34:06;;;;;;;;;;;22.20;34.90;;;;;;5122147;28;19927;-50
2022/05/31 08:36:32;;;;;;;;;;;22.20;35.00;;;;;;5119829;28;19966;-46
2022/05/31 08:38:58;;;;;;;;;;;22.20;35.00;;;;;;5125179;27;20379;-45
2022/05/31 08:41:29;;;;;;;;;;;22.10;35.20;;;;;;5121747;28;19930;-46
2022/05/31 08:43:58;;;;;;;;;;;22.10;35.20;;;;;;5103888;28;20433;-48
2022/05/31 08:46:27;;;;;;;;;;;22.10;35.10;;;;;;5127413;28;19924;-46
2022/05/31 08:48:57;;;;;;;;;;;22.00;35.20;;;;;;5122076;28;19923;-46
2022/05/31 08:56:58;;;;;;;;;;;22.30;34.80;;;;;;5120823;28;19923;-47
2022/05/31 08:59:27;;;;;;;;;;;22.30;34.80;;;;;;5103888;28;20426;-54
2022/05/31 09:01:54;;;;;;;;;;;22.30;35.00;;;;;;5106905;28;19923;-59
2022/05/31 09:04:32;;;;;;;;;;;22.20;35.20;;;;;;5121374;28;19927;-59
2022/05/31 09:07:03;;;;;;;;;;;22.10;35.40;;;;;;5121750;28;20003;-54
2022/05/31 09:09:29;;;;;;;;;;;21.50;36.50;;;;;;5091820;28;20006;-55
2022/05/31 09:11:58;;;;;;;;;;;21.20;36.90;;;;;;5102276;28;20359;-57
2022/05/31 09:14:42;;;;;;;;;;;21.10;37.40;;;;;;5125121;28;19927;-56
2022/05/31 09:17:19;;;;;;;;;;;21.50;37.00;;;;;;5126385;28;19934;-58
2022/05/31 09:19:57;;;;;;;;;;;21.80;36.50;;;;;;5102271;28;19949;-56
2022/05/31 09:22:23;;;;;;;;;;;21.80;36.20;;;;;;5121615;28;19923;-56
2022/05/31 09:24:49;;;;;;;;;;;22.00;36.00;;;;;;5108645;28;19924;-54
2022/05/31 09:27:47;;;;;;;;;;;22.00;36.10;;;;;;5121951;28;19935;-52
2022/05/31 09:30:14;;;;;;;;;;;22.00;36.10;;;;;;5101936;28;19939;-53
2022/05/31 09:32:40;;;;;;;;;;;22.10;35.90;;;;;;5107195;28;19923;-52
2022/05/31 09:35:09;;;;;;;;;;;22.10;36.10;;;;;;5121757;28;19923;-51
2022/05/31 09:37:38;;;;;;;;;;;22.10;36.00;;;;;;5127028;28;19923;-53
2022/05/31 09:40:22;;;;;;;;;;;22.10;36.10;;;;;;5122811;28;19928;-52
2022/05/31 09:43:00;;;;;;;;;;;22.00;36.30;;;;;;5122083;28;20037;-52
2022/05/31 09:45:26;;;;;;;;;;;22.00;36.20;;;;;;5120693;28;19923;-52
2022/05/31 09:47:52;;;;;;;;;;;22.10;36.10;;;;;;5105655;28;19980;-53
2022/05/31 09:50:24;;;;;;;;;;;21.80;36.00;;;;;;5119153;27;19930;-50
2022/05/31 09:52:56;;;;;;;;;;;20.00;39.00;;;;;;5125738;28;20305;-47
2022/05/31 09:58:27;;;;;;;;;;;21.10;36.90;;;;;;5122405;28;19927;-51
2022/05/31 10:01:05;;;;;;;;;;;21.60;35.80;;;;;;5125618;28;20022;-51
2022/05/31 10:03:38;;;;;;;;;;;21.70;35.60;;;;;;5126055;28;19928;-50
2022/05/31 10:06:06;;;;;;;;;;;21.80;35.30;;;;;;5121477;28;19927;-50
2022/05/31 10:08:33;;;;;;;;;;;21.80;35.20;;;;;;5105818;28;19979;-51
2022/05/31 10:11:02;;;;;;;;;;;21.80;35.10;;;;;;5120777;28;20085;-52
2022/05/31 10:13:32;;;;;;;;;;;21.90;35.00;;;;;;5120982;28;19923;-51
2022/05/31 10:15:58;;;;;;;;;;;22.00;34.90;;;;;;5126484;28;19966;-51
2022/05/31 10:18:24;;;;;;;;;;;22.00;34.80;;;;;;5102149;28;19966;-48
2022/05/31 10:20:54;;;;;;;;;;;22.00;34.80;;;;;;5121677;28;19928;-50
2022/05/31 10:23:20;;;;;;;;;;;22.10;34.70;;;;;;5125985;28;20018;-50
2022/05/31 10:25:52;;;;;;;;;;;22.00;34.80;;;;;;5120029;28;19928;-48
2022/05/31 10:28:29;;;;;;;;;;;21.90;35.00;;;;;;5120107;28;20191;-47
2022/05/31 10:31:05;;;;;;;;;;;22.00;34.90;;;;;;5125550;28;19927;-48
2022/05/31 10:33:31;;;;;;;;;;;22.10;34.70;;;;;;5121301;28;20297;-48
2022/05/31 10:36:08;;;;;;;;;;;22.00;35.20;;;;;;5120621;28;19931;-49
2022/05/31 10:38:34;;;;;;;;;;;20.20;39.90;;;;;;5107846;28;19927;-44
2022/05/31 10:41:03;;;;;;;;;;;20.10;41.50;;;;;;5120779;28;19923;-49
2022/05/31 10:43:34;;;;;;;;;;;21.30;39.00;;;;;;5104918;28;19967;-51
2022/05/31 10:46:02;;;;;;;;;;;21.70;38.00;;;;;;5122508;28;19933;-46
2022/05/31 10:48:28;;;;;;;;;;;21.80;37.70;;;;;;5101280;28;19941;-46
2022/05/31 10:51:07;;;;;;;;;;;21.80;37.70;;;;;;5107314;28;20290;-47
2022/05/31 10:53:40;;;;;;;;;;;21.90;37.60;;;;;;5102592;28;20332;-49
2022/05/31 10:56:12;;;;;;;;;;;21.90;37.60;;;;;;5119956;28;21395;-48
2022/05/31 10:58:41;;;;;;;;;;;22.10;37.20;;;;;;5106191;28;19927;-49
2022/05/31 11:01:16;;;;;;;;;;;22.20;37.00;;;;;;5120358;27;20025;-47
2022/05/31 11:04:01;;;;;;;;;;;22.20;36.70;;;;;;5121176;28;19924;-48
2022/05/31 11:06:45;;;;;;;;;;;22.20;36.70;;;;;;5128515;28;20401;-47
2022/05/31 11:12:44;;;;;;;;;;;22.00;37.00;;;;;;5114932;28;19930;-48
2022/05/31 11:15:13;;;;;;;;;;;20.30;40.60;;;;;;5104439;28;19928;-46
2022/05/31 11:17:43;;;;;;;;;;;21.10;38.00;;;;;;5110666;28;19929;-46
2022/05/31 11:20:15;;;;;;;;;;;21.30;37.60;;;;;;5103060;28;20047;-47
2022/05/31 11:22:41;;;;;;;;;;;21.60;38.00;;;;;;5121646;28;20137;-46
2022/05/31 11:25:10;;;;;;;;;;;21.80;37.50;;;;;;5128492;28;20343;-48
2022/05/31 11:27:47;;;;;;;;;;;21.80;37.20;;;;;;5123819;28;19930;-47
2022/05/31 11:30:18;;;;;;;;;;;21.90;36.80;;;;;;5106024;28;20440;-45
2022/05/31 11:33:00;;;;;;;;;;;22.00;36.50;;;;;;5129095;28;19930;-46
2022/05/31 11:35:26;;;;;;;;;;;22.10;36.20;;;;;;5105544;28;19923;-45
2022/05/31 11:37:52;;;;;;;;;;;22.10;35.90;;;;;;5103368;28;19946;-49
2022/05/31 11:40:32;;;;;;;;;;;22.20;35.60;;;;;;5126596;28;20022;-47
2022/05/31 11:43:16;;;;;;;;;;;22.10;35.50;;;;;;5123103;28;19934;-46
2022/05/31 11:45:59;;;;;;;;;;;22.00;35.50;;;;;;5123131;28;19937;-44
2022/05/31 11:48:35;;;;;;;;;;;22.20;35.20;;;;;;5108746;28;20408;-49
2022/05/31 11:51:19;;;;;;;;;;;20.40;37.90;;;;;;5123528;28;19924;-50
2022/05/31 11:53:48;;;;;;;;;;;19.70;39.00;;;;;;5123134;28;20018;-49
2022/05/31 11:56:16;;;;;;;;;;;20.80;36.80;;;;;;5128523;28;19972;-48
2022/05/31 11:58:44;;;;;;;;;;;21.60;35.30;;;;;;5103226;28;19986;-52
2022/05/31 12:01:31;;;;;;;;;;;21.80;34.80;;;;;;5103752;27;19930;-48
2022/05/31 12:04:17;;;;;;;;;;;22.00;34.50;;;;;;5127636;28;20370;-51
2022/05/31 12:06:45;;;;;;;;;;;22.00;34.40;;;;;;5123335;28;19923;-51
2022/05/31 12:09:31;;;;;;;;;;;22.00;34.20;;;;;;5104850;28;20551;-49
2022/05/31 12:11:59;;;;;;;;;;;22.20;34.10;;;;;;5128325;28;20021;-47
2022/05/31 12:14:25;;;;;;;;;;;22.00;34.00;;;;;;5122485;27;19929;-46
2022/05/31 12:16:50;;;;;;;;;;;20.40;36.60;;;;;;5120992;28;20255;-45
2022/05/31 12:19:30;;;;;;;;;;;19.80;37.80;;;;;;5108841;28;19962;-50
2022/05/31 12:21:58;;;;;;;;;;;21.10;35.40;;;;;;5122174;27;20371;-45
2022/05/31 12:24:26;;;;;;;;;;;21.80;34.30;;;;;;5122553;28;19923;-49
2022/05/31 12:27:13;;;;;;;;;;;22.00;33.90;;;;;;5109475;28;19932;-47
2022/05/31 12:29:45;;;;;;;;;;;22.00;33.70;;;;;;5086808;28;19934;-51
2022/05/31 12:32:20;;;;;;;;;;;22.00;33.70;;;;;;5103511;28;20191;-47
2022/05/31 12:34:46;;;;;;;;;;;22.10;33.60;;;;;;5125761;28;19924;-48
2022/05/31 12:37:13;;;;;;;;;;;22.10;33.50;;;;;;5120790;28;19946;-44
2022/05/31 12:39:40;;;;;;;;;;;22.20;33.30;;;;;;5089550;28;19930;-57
2022/05/31 12:42:15;;;;;;;;;;;21.90;33.20;;;;;;5124914;28;20040;-45
2022/05/31 12:44:41;;;;;;;;;;;20.20;36.20;;;;;;5122816;28;19972;-49
2022/05/31 12:47:17;;;;;;;;;;;20.10;36.60;;;;;;5127945;28;20010;-46
2022/05/31 12:50:04;;;;;;;;;;;21.20;34.60;;;;;;5122216;28;20291;-47
2022/05/31 12:55:12;;;;;;;;;;;21.90;33.40;;;;;;5124262;28;19991;-53
2022/05/31 13:00:26;;;;;;;;;;;22.10;33.10;;;;;;5121657;28;20349;-45
2022/05/31 13:02:54;;;;;;;;;;;22.20;33.00;;;;;;5125346;28;20090;-53
2022/05/31 13:05:34;;;;;;;;;;;22.20;33.00;;;;;;5124718;28;19976;-49
2022/05/31 13:08:09;;;;;;;;;;;21.90;33.00;;;;;;5121906;28;19927;-50
2022/05/31 13:19:34;;;;;;;;;;;20.00;36.00;;;;;;5125452;28;20078;-53
2022/05/31 13:21:52;;;;;;;;;;;21.30;33.70;;;;;;5111524;27;20350;-53
2022/05/31 13:24:17;;;;;;;;;;;21.10;33.90;;;;;;5122281;27;19929;-51
2022/05/31 13:26:43;;;;;;;;;;;21.20;33.90;;;;;;5121388;28;20374;-50
2022/05/31 13:29:10;;;;;;;;;;;21.70;33.00;;;;;;5125846;28;19977;-47
2022/05/31 13:31:46;;;;;;;;;;;21.80;32.80;;;;;;5120541;28;20014;-50
2022/05/31 13:34:21;;;;;;;;;;;22.00;32.40;;;;;;5121079;28;20394;-48
2022/05/31 13:36:47;;;;;;;;;;;22.00;32.30;;;;;;5108266;28;19976;-53
2022/05/31 13:39:14;;;;;;;;;;;22.00;32.20;;;;;;5121717;28;19980;-50
2022/05/31 13:41:45;;;;;;;;;;;22.10;32.10;;;;;;5104128;28;19931;-54
2022/05/31 13:44:10;;;;;;;;;;;22.10;32.10;;;;;;5126482;28;19923;-49
2022/05/31 13:46:37;;;;;;;;;;;22.20;31.80;;;;;;5121141;28;19931;-51
2022/05/31 13:49:17;;;;;;;;;;;22.20;31.70;;;;;;5106167;28;20295;-51
2022/05/31 13:51:52;;;;;;;;;;;22.20;31.80;;;;;;5121729;28;20112;-48
2022/05/31 13:54:21;;;;;;;;;;;22.00;31.60;;;;;;5101857;28;19965;-51
2022/05/31 13:56:48;;;;;;;;;;;20.10;34.60;;;;;;5126501;28;19934;-48
2022/05/31 13:59:14;;;;;;;;;;;20.00;35.00;;;;;;5120985;28;19930;-49
2022/05/31 14:01:46;;;;;;;;;;;21.10;33.10;;;;;;5102862;28;20390;-47
2022/05/31 14:04:13;;;;;;;;;;;21.70;32.30;;;;;;5126127;28;20067;-48
2022/05/31 14:06:40;;;;;;;;;;;21.90;31.90;;;;;;5118869;28;19923;-46
2022/05/31 14:09:06;;;;;;;;;;;22.10;31.70;;;;;;5119787;28;20076;-47
2022/05/31 14:11:42;;;;;;;;;;;22.20;31.60;;;;;;5125936;28;19938;-47
2022/05/31 14:14:12;;;;;;;;;;;22.00;31.90;;;;;;5120478;28;19923;-47
2022/05/31 14:16:38;;;;;;;;;;;22.10;31.80;;;;;;5120572;28;20018;-49
2022/05/31 14:19:16;;;;;;;;;;;22.10;31.70;;;;;;5090572;28;20430;-47
2022/05/31 14:21:42;;;;;;;;;;;22.20;31.70;;;;;;5120425;27;19924;-45
2022/05/31 14:24:09;;;;;;;;;;;22.30;31.60;;;;;;5123933;28;19923;-55
2022/05/31 14:26:35;;;;;;;;;;;21.30;33.20;;;;;;5120636;28;19945;-50
2022/05/31 14:29:07;;;;;;;;;;;19.90;35.50;;;;;;5119743;28;19927;-50
2022/05/31 14:31:33;;;;;;;;;;;20.50;34.70;;;;;;5125630;28;19928;-48
2022/05/31 14:34:00;;;;;;;;;;;21.30;33.20;;;;;;5120294;28;19923;-49
2022/05/31 14:36:30;;;;;;;;;;;21.80;32.40;;;;;;5121292;27;19937;-47
2022/05/31 14:38:56;;;;;;;;;;;21.90;32.20;;;;;;5111075;28;19924;-47
2022/05/31 14:41:30;;;;;;;;;;;22.00;32.10;;;;;;5123585;28;20038;-49
2022/05/31 14:43:56;;;;;;;;;;;22.10;32.00;;;;;;5121611;28;20066;-47
2022/05/31 14:46:28;;;;;;;;;;;22.10;31.90;;;;;;5128571;28;19930;-48
2022/05/31 14:49:04;;;;;;;;;;;22.20;31.80;;;;;;5123384;28;19923;-51
2022/05/31 14:51:33;;;;;;;;;;;22.20;31.60;;;;;;5124089;28;19991;-52
2022/05/31 14:54:00;;;;;;;;;;;21.40;32.40;;;;;;5129487;28;19923;-48
2022/05/31 14:56:38;;;;;;;;;;;20.10;34.70;;;;;;5124152;28;19923;-46
2022/05/31 14:59:05;;;;;;;;;;;19.80;35.00;;;;;;5125761;28;20023;-54
2022/05/31 15:01:46;;;;;;;;;;;21.30;32.70;;;;;;5108029;28;19931;-49
2022/05/31 15:04:23;;;;;;;;;;;21.80;31.90;;;;;;5122642;28;19927;-46